Channel-Port Aux Basques, Canada
Current Conditions -  °F | °C
As of 2:00 PM on Wednesday 28 Jan 2015 (Local Time) from CWZB Reporting Station
Overcast Overcast  
Wind Chill: 25°   Ceiling: Unl
Heat Index: 35°   Visibility: 0mi
Dew Point: 35°   Wind: 16mph
Humidity: 100%   Direction: 90°E
Pressure: 29.66"   Gusts: NA
Location:  47.57°N, 59.15°W
Report Text: CWZB 281700Z AUTO 09014KT M1/4SM OVC000 02/02 A2966 RMK SLP043 PK WND 09018/// T00180018 70031 WSI/SWOB
Loading
Personal Weather Stations






























Interactive Weather Map New forecast layout! Learn more

10-Day Weather Forecast

Advertisements
Track Severe Weather on mobile